sensor_id;sensor_type;location;lat;lon;timestamp;temperature;humidity
68354;DHT22;55274;43.060;25.618;2023-04-24T00:00:04;9.70;99.90
68354;DHT22;55274;43.060;25.618;2023-04-24T00:02:37;9.70;99.90
68354;DHT22;55274;43.060;25.618;2023-04-24T00:05:05;9.70;99.90
68354;DHT22;55274;43.060;25.618;2023-04-24T00:07:31;9.70;99.90
68354;DHT22;55274;43.060;25.618;2023-04-24T00:09:56;9.60;99.90
68354;DHT22;55274;43.060;25.618;2023-04-24T00:12:23;9.60;99.90
68354;DHT22;55274;43.060;25.618;2023-04-24T00:14:48;9.60;99.90
68354;DHT22;55274;43.060;25.618;2023-04-24T00:17:15;9.60;99.90
68354;DHT22;55274;43.060;25.618;2023-04-24T00:19:40;9.60;99.90
68354;DHT22;55274;43.060;25.618;2023-04-24T00:22:06;9.50;99.90
68354;DHT22;55274;43.060;25.618;2023-04-24T00:24:32;9.50;99.90
68354;DHT22;55274;43.060;25.618;2023-04-24T00:26:58;9.40;99.90
68354;DHT22;55274;43.060;25.618;2023-04-24T00:29:26;9.40;99.90
68354;DHT22;55274;43.060;25.618;2023-04-24T00:31:52;9.40;99.90
68354;DHT22;55274;43.060;25.618;2023-04-24T00:34:17;9.40;99.90
68354;DHT22;55274;43.060;25.618;2023-04-24T00:36:43;9.40;99.90
68354;DHT22;55274;43.060;25.618;2023-04-24T00:39:09;9.40;99.90
68354;DHT22;55274;43.060;25.618;2023-04-24T00:41:35;9.40;99.90
68354;DHT22;55274;43.060;25.618;2023-04-24T00:44:01;9.40;99.90
68354;DHT22;55274;43.060;25.618;2023-04-24T00:46:27;9.30;99.90
68354;DHT22;55274;43.060;25.618;2023-04-24T00:48:53;9.20;99.90
68354;DHT22;55274;43.060;25.618;2023-04-24T00:51:19;9.20;99.90
68354;DHT22;55274;43.060;25.618;2023-04-24T00:53:45;9.20;99.90
68354;DHT22;55274;43.060;25.618;2023-04-24T00:56:11;9.20;99.90
68354;DHT22;55274;43.060;25.618;2023-04-24T00:58:37;9.10;99.90
68354;DHT22;55274;43.060;25.618;2023-04-24T01:01:03;9.10;99.90
68354;DHT22;55274;43.060;25.618;2023-04-24T01:03:33;9.10;99.90
68354;DHT22;55274;43.060;25.618;2023-04-24T01:05:59;9.10;99.90
68354;DHT22;55274;43.060;25.618;2023-04-24T01:08:26;9.00;99.90
68354;DHT22;55274;43.060;25.618;2023-04-24T01:10:54;9.00;99.90
68354;DHT22;55274;43.060;25.618;2023-04-24T01:13:20;9.00;99.90
68354;DHT22;55274;43.060;25.618;2023-04-24T01:15:47;8.90;99.90
68354;DHT22;55274;43.060;25.618;2023-04-24T01:18:13;8.90;99.90
68354;DHT22;55274;43.060;25.618;2023-04-24T01:20:42;8.90;99.90
68354;DHT22;55274;43.060;25.618;2023-04-24T01:23:09;8.80;99.90
68354;DHT22;55274;43.060;25.618;2023-04-24T01:25:36;8.80;99.90
68354;DHT22;55274;43.060;25.618;2023-04-24T01:28:03;8.70;99.90
68354;DHT22;55274;43.060;25.618;2023-04-24T01:30:29;8.70;99.90
68354;DHT22;55274;43.060;25.618;2023-04-24T01:32:55;8.70;99.90
68354;DHT22;55274;43.060;25.618;2023-04-24T01:35:21;8.60;99.90
68354;DHT22;55274;43.060;25.618;2023-04-24T01:37:47;8.60;99.90
68354;DHT22;55274;43.060;25.618;2023-04-24T01:40:13;8.60;99.90
68354;DHT22;55274;43.060;25.618;2023-04-24T01:42:41;8.60;99.90
68354;DHT22;55274;43.060;25.618;2023-04-24T01:45:10;8.60;99.90
68354;DHT22;55274;43.060;25.618;2023-04-24T01:47:38;8.60;99.90
68354;DHT22;55274;43.060;25.618;2023-04-24T01:50:04;8.50;99.90
68354;DHT22;55274;43.060;25.618;2023-04-24T01:52:30;8.60;99.90
68354;DHT22;55274;43.060;25.618;2023-04-24T01:55:04;8.50;99.90
68354;DHT22;55274;43.060;25.618;2023-04-24T01:57:31;8.50;99.90
68354;DHT22;55274;43.060;25.618;2023-04-24T01:59:57;8.40;99.90
68354;DHT22;55274;43.060;25.618;2023-04-24T02:02:23;8.50;99.90
68354;DHT22;55274;43.060;25.618;2023-04-24T02:04:55;8.40;99.90
68354;DHT22;55274;43.060;25.618;2023-04-24T02:07:21;8.30;99.90
68354;DHT22;55274;43.060;25.618;2023-04-24T02:09:47;8.30;99.90
68354;DHT22;55274;43.060;25.618;2023-04-24T02:12:17;8.40;99.90
68354;DHT22;55274;43.060;25.618;2023-04-24T02:14:45;8.40;99.90
68354;DHT22;55274;43.060;25.618;2023-04-24T02:17:11;8.40;99.90
68354;DHT22;55274;43.060;25.618;2023-04-24T02:19:38;8.40;99.90
68354;DHT22;55274;43.060;25.618;2023-04-24T02:22:04;8.30;99.90
68354;DHT22;55274;43.060;25.618;2023-04-24T02:24:30;8.20;99.90
68354;DHT22;55274;43.060;25.618;2023-04-24T02:26:56;8.20;99.90
68354;DHT22;55274;43.060;25.618;2023-04-24T02:29:23;8.20;99.90
68354;DHT22;55274;43.060;25.618;2023-04-24T02:31:49;8.20;99.90
68354;DHT22;55274;43.060;25.618;2023-04-24T02:34:14;8.20;99.90
68354;DHT22;55274;43.060;25.618;2023-04-24T02:36:41;8.10;99.90
68354;DHT22;55274;43.060;25.618;2023-04-24T02:39:07;8.20;99.90
68354;DHT22;55274;43.060;25.618;2023-04-24T02:41:33;8.10;99.90
68354;DHT22;55274;43.060;25.618;2023-04-24T02:43:59;8.10;99.90
68354;DHT22;55274;43.060;25.618;2023-04-24T02:46:25;8.10;99.90
68354;DHT22;55274;43.060;25.618;2023-04-24T02:48:51;8.00;99.90
68354;DHT22;55274;43.060;25.618;2023-04-24T02:51:17;8.00;99.90
68354;DHT22;55274;43.060;25.618;2023-04-24T02:53:43;8.00;99.90
68354;DHT22;55274;43.060;25.618;2023-04-24T02:56:09;8.00;99.90
68354;DHT22;55274;43.060;25.618;2023-04-24T02:58:37;7.90;99.90
68354;DHT22;55274;43.060;25.618;2023-04-24T03:01:03;7.90;99.90
68354;DHT22;55274;43.060;25.618;2023-04-24T03:03:29;7.80;99.90
68354;DHT22;55274;43.060;25.618;2023-04-24T03:05:55;7.80;99.90
68354;DHT22;55274;43.060;25.618;2023-04-24T03:08:22;7.80;99.90
68354;DHT22;55274;43.060;25.618;2023-04-24T03:10:48;7.80;99.90
68354;DHT22;55274;43.060;25.618;2023-04-24T03:13:15;7.80;99.90
68354;DHT22;55274;43.060;25.618;2023-04-24T03:15:41;7.80;99.90
68354;DHT22;55274;43.060;25.618;2023-04-24T03:18:07;7.80;99.90
68354;DHT22;55274;43.060;25.618;2023-04-24T03:20:33;7.80;99.90
68354;DHT22;55274;43.060;25.618;2023-04-24T03:22:58;7.70;99.90
68354;DHT22;55274;43.060;25.618;2023-04-24T03:25:25;7.60;99.90
68354;DHT22;55274;43.060;25.618;2023-04-24T03:27:51;7.60;99.90
68354;DHT22;55274;43.060;25.618;2023-04-24T03:30:17;7.60;99.90
68354;DHT22;55274;43.060;25.618;2023-04-24T03:32:42;7.60;99.90
68354;DHT22;55274;43.060;25.618;2023-04-24T03:35:08;7.60;99.90
68354;DHT22;55274;43.060;25.618;2023-04-24T03:37:34;7.70;99.90
68354;DHT22;55274;43.060;25.618;2023-04-24T03:40:01;7.60;99.90
68354;DHT22;55274;43.060;25.618;2023-04-24T03:42:27;7.60;99.90
68354;DHT22;55274;43.060;25.618;2023-04-24T03:44:52;7.60;99.90
68354;DHT22;55274;43.060;25.618;2023-04-24T03:47:18;7.60;99.90
68354;DHT22;55274;43.060;25.618;2023-04-24T03:49:45;7.60;99.90
68354;DHT22;55274;43.060;25.618;2023-04-24T03:52:10;7.60;99.90
68354;DHT22;55274;43.060;25.618;2023-04-24T03:54:36;7.60;99.90
68354;DHT22;55274;43.060;25.618;2023-04-24T03:57:02;7.60;99.90
68354;DHT22;55274;43.060;25.618;2023-04-24T03:59:28;7.60;99.90
68354;DHT22;55274;43.060;25.618;2023-04-24T04:01:54;7.60;99.90
68354;DHT22;55274;43.060;25.618;2023-04-24T04:04:20;7.60;99.90
68354;DHT22;55274;43.060;25.618;2023-04-24T04:06:46;7.70;99.90
68354;DHT22;55274;43.060;25.618;2023-04-24T04:09:12;7.70;99.90
68354;DHT22;55274;43.060;25.618;2023-04-24T04:11:37;7.70;99.90
68354;DHT22;55274;43.060;25.618;2023-04-24T04:14:03;7.70;99.90
68354;DHT22;55274;43.060;25.618;2023-04-24T04:16:29;7.70;99.90
68354;DHT22;55274;43.060;25.618;2023-04-24T04:18:55;7.90;99.90
68354;DHT22;55274;43.060;25.618;2023-04-24T04:21:21;8.00;99.90
68354;DHT22;55274;43.060;25.618;2023-04-24T04:23:47;8.10;99.90
68354;DHT22;55274;43.060;25.618;2023-04-24T04:26:13;8.20;99.90
68354;DHT22;55274;43.060;25.618;2023-04-24T04:28:39;8.30;99.90
68354;DHT22;55274;43.060;25.618;2023-04-24T04:31:05;8.40;99.90
68354;DHT22;55274;43.060;25.618;2023-04-24T04:33:33;8.50;99.90
68354;DHT22;55274;43.060;25.618;2023-04-24T04:35:59;8.60;99.90
68354;DHT22;55274;43.060;25.618;2023-04-24T04:38:25;8.80;99.90
68354;DHT22;55274;43.060;25.618;2023-04-24T04:40:55;9.50;99.90
68354;DHT22;55274;43.060;25.618;2023-04-24T04:43:24;10.40;99.90
68354;DHT22;55274;43.060;25.618;2023-04-24T04:45:50;11.30;99.90
68354;DHT22;55274;43.060;25.618;2023-04-24T04:48:17;12.00;99.90
68354;DHT22;55274;43.060;25.618;2023-04-24T04:50:44;12.50;99.90
68354;DHT22;55274;43.060;25.618;2023-04-24T04:53:10;13.20;99.90
68354;DHT22;55274;43.060;25.618;2023-04-24T04:55:37;14.30;99.90
68354;DHT22;55274;43.060;25.618;2023-04-24T04:58:03;15.10;99.30
68354;DHT22;55274;43.060;25.618;2023-04-24T05:00:29;16.00;92.40
68354;DHT22;55274;43.060;25.618;2023-04-24T05:02:59;16.50;87.20
68354;DHT22;55274;43.060;25.618;2023-04-24T05:05:25;17.30;84.20
68354;DHT22;55274;43.060;25.618;2023-04-24T05:07:51;17.70;77.30
68354;DHT22;55274;43.060;25.618;2023-04-24T05:10:17;18.00;79.00
68354;DHT22;55274;43.060;25.618;2023-04-24T05:12:43;18.60;72.40
68354;DHT22;55274;43.060;25.618;2023-04-24T05:15:09;18.80;69.90
68354;DHT22;55274;43.060;25.618;2023-04-24T05:17:35;18.70;71.50
68354;DHT22;55274;43.060;25.618;2023-04-24T05:20:02;19.50;69.00
68354;DHT22;55274;43.060;25.618;2023-04-24T05:22:31;20.00;66.00
68354;DHT22;55274;43.060;25.618;2023-04-24T05:24:57;20.40;63.40
68354;DHT22;55274;43.060;25.618;2023-04-24T05:27:23;20.70;64.10
68354;DHT22;55274;43.060;25.618;2023-04-24T05:29:48;21.20;60.70
68354;DHT22;55274;43.060;25.618;2023-04-24T05:32:14;21.30;59.80
68354;DHT22;55274;43.060;25.618;2023-04-24T05:34:40;21.30;58.80
68354;DHT22;55274;43.060;25.618;2023-04-24T05:37:06;21.60;59.60
68354;DHT22;55274;43.060;25.618;2023-04-24T05:39:34;21.90;58.00
68354;DHT22;55274;43.060;25.618;2023-04-24T05:42:01;21.80;56.50
68354;DHT22;55274;43.060;25.618;2023-04-24T05:44:27;21.70;57.30
68354;DHT22;55274;43.060;25.618;2023-04-24T05:46:53;22.00;56.10
68354;DHT22;55274;43.060;25.618;2023-04-24T05:49:20;22.20;55.80
68354;DHT22;55274;43.060;25.618;2023-04-24T05:51:46;22.10;55.70
68354;DHT22;55274;43.060;25.618;2023-04-24T05:54:12;22.40;54.50
68354;DHT22;55274;43.060;25.618;2023-04-24T05:56:38;22.60;53.70
68354;DHT22;55274;43.060;25.618;2023-04-24T05:59:04;22.90;53.00
68354;DHT22;55274;43.060;25.618;2023-04-24T06:01:31;22.90;51.90
68354;DHT22;55274;43.060;25.618;2023-04-24T06:03:57;22.80;52.40
68354;DHT22;55274;43.060;25.618;2023-04-24T06:06:24;22.70;51.80
68354;DHT22;55274;43.060;25.618;2023-04-24T06:08:50;22.60;51.80
68354;DHT22;55274;43.060;25.618;2023-04-24T06:11:15;22.30;51.70
68354;DHT22;55274;43.060;25.618;2023-04-24T06:13:41;22.00;53.30
68354;DHT22;55274;43.060;25.618;2023-04-24T06:16:07;21.80;53.60
68354;DHT22;55274;43.060;25.618;2023-04-24T06:18:33;21.80;54.10
68354;DHT22;55274;43.060;25.618;2023-04-24T06:20:59;22.10;54.50
68354;DHT22;55274;43.060;25.618;2023-04-24T06:23:25;22.30;54.30
68354;DHT22;55274;43.060;25.618;2023-04-24T06:25:51;22.40;52.80
68354;DHT22;55274;43.060;25.618;2023-04-24T06:28:17;22.60;52.80
68354;DHT22;55274;43.060;25.618;2023-04-24T06:30:42;22.60;51.30
68354;DHT22;55274;43.060;25.618;2023-04-24T06:33:09;22.60;52.30
68354;DHT22;55274;43.060;25.618;2023-04-24T06:35:36;22.70;51.00
68354;DHT22;55274;43.060;25.618;2023-04-24T06:38:01;22.60;51.10
68354;DHT22;55274;43.060;25.618;2023-04-24T06:40:27;22.40;51.30
68354;DHT22;55274;43.060;25.618;2023-04-24T06:42:53;22.30;51.60
68354;DHT22;55274;43.060;25.618;2023-04-24T06:45:19;21.80;51.00
68354;DHT22;55274;43.060;25.618;2023-04-24T06:47:44;22.50;50.70
68354;DHT22;55274;43.060;25.618;2023-04-24T06:50:10;22.60;50.60
68354;DHT22;55274;43.060;25.618;2023-04-24T06:52:37;22.90;49.80
68354;DHT22;55274;43.060;25.618;2023-04-24T06:55:03;23.10;49.80
68354;DHT22;55274;43.060;25.618;2023-04-24T06:57:29;23.10;48.40
68354;DHT22;55274;43.060;25.618;2023-04-24T06:59:55;22.90;50.20
68354;DHT22;55274;43.060;25.618;2023-04-24T07:02:21;23.10;50.00
68354;DHT22;55274;43.060;25.618;2023-04-24T07:04:47;23.40;48.90
68354;DHT22;55274;43.060;25.618;2023-04-24T07:07:13;23.50;48.80
68354;DHT22;55274;43.060;25.618;2023-04-24T07:09:40;23.70;49.30
68354;DHT22;55274;43.060;25.618;2023-04-24T07:12:11;23.90;49.40
68354;DHT22;55274;43.060;25.618;2023-04-24T07:14:37;23.90;47.20
68354;DHT22;55274;43.060;25.618;2023-04-24T07:17:04;24.30;47.20
68354;DHT22;55274;43.060;25.618;2023-04-24T07:19:31;24.40;46.50
68354;DHT22;55274;43.060;25.618;2023-04-24T07:21:56;24.40;46.80
68354;DHT22;55274;43.060;25.618;2023-04-24T07:24:24;24.20;46.20
68354;DHT22;55274;43.060;25.618;2023-04-24T07:26:51;24.40;46.00
68354;DHT22;55274;43.060;25.618;2023-04-24T07:29:17;24.10;46.30
68354;DHT22;55274;43.060;25.618;2023-04-24T07:31:43;23.70;45.50
68354;DHT22;55274;43.060;25.618;2023-04-24T07:34:09;23.70;47.30
68354;DHT22;55274;43.060;25.618;2023-04-24T07:36:35;23.50;47.50
68354;DHT22;55274;43.060;25.618;2023-04-24T07:39:04;23.30;47.90
68354;DHT22;55274;43.060;25.618;2023-04-24T07:41:30;23.30;47.40
68354;DHT22;55274;43.060;25.618;2023-04-24T07:43:56;23.20;47.30
68354;DHT22;55274;43.060;25.618;2023-04-24T07:46:22;23.40;47.20
68354;DHT22;55274;43.060;25.618;2023-04-24T07:48:49;23.50;46.90
68354;DHT22;55274;43.060;25.618;2023-04-24T07:51:15;23.60;47.40
68354;DHT22;55274;43.060;25.618;2023-04-24T07:53:42;23.50;47.30
68354;DHT22;55274;43.060;25.618;2023-04-24T07:56:08;23.50;47.10
68354;DHT22;55274;43.060;25.618;2023-04-24T07:58:34;23.30;46.80
68354;DHT22;55274;43.060;25.618;2023-04-24T08:01:00;23.30;48.40
68354;DHT22;55274;43.060;25.618;2023-04-24T08:03:26;23.20;48.00
68354;DHT22;55274;43.060;25.618;2023-04-24T08:05:52;23.00;48.20
68354;DHT22;55274;43.060;25.618;2023-04-24T08:08:20;22.80;48.40
68354;DHT22;55274;43.060;25.618;2023-04-24T08:10:46;22.50;48.80
68354;DHT22;55274;43.060;25.618;2023-04-24T08:13:12;22.40;49.00
68354;DHT22;55274;43.060;25.618;2023-04-24T08:15:38;22.30;49.30
68354;DHT22;55274;43.060;25.618;2023-04-24T08:18:04;22.30;51.00
68354;DHT22;55274;43.060;25.618;2023-04-24T08:20:30;22.40;51.90
68354;DHT22;55274;43.060;25.618;2023-04-24T08:22:56;22.60;50.00
68354;DHT22;55274;43.060;25.618;2023-04-24T08:25:22;22.60;48.40
68354;DHT22;55274;43.060;25.618;2023-04-24T08:27:49;22.60;50.00
68354;DHT22;55274;43.060;25.618;2023-04-24T08:30:15;22.50;49.70
68354;DHT22;55274;43.060;25.618;2023-04-24T08:32:40;22.40;48.40
68354;DHT22;55274;43.060;25.618;2023-04-24T08:35:07;22.30;48.50
68354;DHT22;55274;43.060;25.618;2023-04-24T08:37:35;22.30;48.90
68354;DHT22;55274;43.060;25.618;2023-04-24T08:40:06;22.40;49.30
68354;DHT22;55274;43.060;25.618;2023-04-24T08:42:33;22.30;49.30
68354;DHT22;55274;43.060;25.618;2023-04-24T08:45:00;22.10;50.60
68354;DHT22;55274;43.060;25.618;2023-04-24T08:47:26;21.90;50.90
68354;DHT22;55274;43.060;25.618;2023-04-24T08:49:54;21.80;51.00
68354;DHT22;55274;43.060;25.618;2023-04-24T08:52:20;21.80;51.40
68354;DHT22;55274;43.060;25.618;2023-04-24T08:54:48;21.70;51.80
68354;DHT22;55274;43.060;25.618;2023-04-24T08:57:15;21.60;52.00
68354;DHT22;55274;43.060;25.618;2023-04-24T08:59:42;21.60;52.00
68354;DHT22;55274;43.060;25.618;2023-04-24T09:02:10;21.60;52.50
68354;DHT22;55274;43.060;25.618;2023-04-24T09:04:37;21.60;52.40
68354;DHT22;55274;43.060;25.618;2023-04-24T09:07:03;21.70;52.30
68354;DHT22;55274;43.060;25.618;2023-04-24T09:09:33;21.70;52.60
68354;DHT22;55274;43.060;25.618;2023-04-24T09:11:59;21.80;52.70
68354;DHT22;55274;43.060;25.618;2023-04-24T09:14:26;21.80;51.50
68354;DHT22;55274;43.060;25.618;2023-04-24T09:16:53;21.90;52.00
68354;DHT22;55274;43.060;25.618;2023-04-24T09:19:19;22.40;51.90
68354;DHT22;55274;43.060;25.618;2023-04-24T09:21:47;22.90;49.90
68354;DHT22;55274;43.060;25.618;2023-04-24T09:24:19;23.30;49.10
68354;DHT22;55274;43.060;25.618;2023-04-24T09:26:49;23.70;48.80
68354;DHT22;55274;43.060;25.618;2023-04-24T09:29:22;24.30;47.20
68354;DHT22;55274;43.060;25.618;2023-04-24T09:31:48;24.20;47.90
68354;DHT22;55274;43.060;25.618;2023-04-24T09:34:14;24.10;47.20
68354;DHT22;55274;43.060;25.618;2023-04-24T09:36:42;23.90;47.50
68354;DHT22;55274;43.060;25.618;2023-04-24T09:39:10;23.90;47.90
68354;DHT22;55274;43.060;25.618;2023-04-24T09:41:53;23.60;47.30
68354;DHT22;55274;43.060;25.618;2023-04-24T09:44:21;23.60;46.90
68354;DHT22;55274;43.060;25.618;2023-04-24T09:49:24;24.00;44.00
68354;DHT22;55274;43.060;25.618;2023-04-24T09:51:50;24.60;42.00
68354;DHT22;55274;43.060;25.618;2023-04-24T09:54:21;25.00;41.10
68354;DHT22;55274;43.060;25.618;2023-04-24T09:56:48;24.60;41.80
68354;DHT22;55274;43.060;25.618;2023-04-24T09:59:16;24.50;42.50
68354;DHT22;55274;43.060;25.618;2023-04-24T10:01:42;24.30;44.10
68354;DHT22;55274;43.060;25.618;2023-04-24T10:04:23;24.00;44.10
68354;DHT22;55274;43.060;25.618;2023-04-24T10:06:51;24.00;45.10
68354;DHT22;55274;43.060;25.618;2023-04-24T10:09:25;24.20;44.70
68354;DHT22;55274;43.060;25.618;2023-04-24T10:11:52;24.20;44.60
68354;DHT22;55274;43.060;25.618;2023-04-24T10:14:21;24.20;44.50
68354;DHT22;55274;43.060;25.618;2023-04-24T10:16:47;24.10;44.40
68354;DHT22;55274;43.060;25.618;2023-04-24T10:19:15;23.80;45.70
68354;DHT22;55274;43.060;25.618;2023-04-24T10:21:43;24.20;45.30
68354;DHT22;55274;43.060;25.618;2023-04-24T10:24:12;24.20;45.00
68354;DHT22;55274;43.060;25.618;2023-04-24T10:26:38;24.30;45.30
68354;DHT22;55274;43.060;25.618;2023-04-24T10:29:06;24.30;46.30
68354;DHT22;55274;43.060;25.618;2023-04-24T10:31:37;24.40;45.20
68354;DHT22;55274;43.060;25.618;2023-04-24T10:34:07;24.30;44.60
68354;DHT22;55274;43.060;25.618;2023-04-24T10:36:34;24.50;44.90
68354;DHT22;55274;43.060;25.618;2023-04-24T10:39:02;24.70;44.10
68354;DHT22;55274;43.060;25.618;2023-04-24T10:41:30;24.80;44.10
68354;DHT22;55274;43.060;25.618;2023-04-24T10:44:13;25.00;44.10
68354;DHT22;55274;43.060;25.618;2023-04-24T10:46:39;24.80;43.70
68354;DHT22;55274;43.060;25.618;2023-04-24T10:49:08;24.50;44.80
68354;DHT22;55274;43.060;25.618;2023-04-24T10:52:03;24.50;44.40
68354;DHT22;55274;43.060;25.618;2023-04-24T10:54:36;24.50;45.40
68354;DHT22;55274;43.060;25.618;2023-04-24T11:00:10;23.80;45.60
68354;DHT22;55274;43.060;25.618;2023-04-24T11:02:39;23.70;45.20
68354;DHT22;55274;43.060;25.618;2023-04-24T11:05:06;23.60;45.60
68354;DHT22;55274;43.060;25.618;2023-04-24T11:10:43;23.40;46.80
68354;DHT22;55274;43.060;25.618;2023-04-24T11:13:09;23.20;46.50
68354;DHT22;55274;43.060;25.618;2023-04-24T11:15:35;23.30;46.50
68354;DHT22;55274;43.060;25.618;2023-04-24T11:18:01;23.40;47.30
68354;DHT22;55274;43.060;25.618;2023-04-24T11:20:27;23.60;46.70
68354;DHT22;55274;43.060;25.618;2023-04-24T11:22:54;23.80;45.70
68354;DHT22;55274;43.060;25.618;2023-04-24T11:25:21;24.00;45.10
68354;DHT22;55274;43.060;25.618;2023-04-24T11:27:49;23.80;44.70
68354;DHT22;55274;43.060;25.618;2023-04-24T11:30:20;24.20;45.10
68354;DHT22;55274;43.060;25.618;2023-04-24T11:32:51;24.60;45.00
68354;DHT22;55274;43.060;25.618;2023-04-24T11:35:21;25.00;44.80
68354;DHT22;55274;43.060;25.618;2023-04-24T11:37:54;25.30;43.10
68354;DHT22;55274;43.060;25.618;2023-04-24T11:40:21;25.60;42.80
68354;DHT22;55274;43.060;25.618;2023-04-24T11:42:54;25.70;42.70
68354;DHT22;55274;43.060;25.618;2023-04-24T11:45:24;25.90;41.40
68354;DHT22;55274;43.060;25.618;2023-04-24T11:47:50;25.50;42.30
68354;DHT22;55274;43.060;25.618;2023-04-24T11:50:18;25.10;43.40
68354;DHT22;55274;43.060;25.618;2023-04-24T11:52:46;25.20;43.40
68354;DHT22;55274;43.060;25.618;2023-04-24T11:57:48;25.10;42.90
68354;DHT22;55274;43.060;25.618;2023-04-24T12:00:31;25.10;42.70
68354;DHT22;55274;43.060;25.618;2023-04-24T12:03:05;24.50;43.60
68354;DHT22;55274;43.060;25.618;2023-04-24T12:05:31;24.60;43.80
68354;DHT22;55274;43.060;25.618;2023-04-24T12:07:57;24.70;42.90
68354;DHT22;55274;43.060;25.618;2023-04-24T12:10:24;24.60;43.20
68354;DHT22;55274;43.060;25.618;2023-04-24T12:12:51;24.30;44.10
68354;DHT22;55274;43.060;25.618;2023-04-24T12:15:19;24.50;45.10
68354;DHT22;55274;43.060;25.618;2023-04-24T12:17:45;24.40;44.30
68354;DHT22;55274;43.060;25.618;2023-04-24T12:20:12;24.30;44.80
68354;DHT22;55274;43.060;25.618;2023-04-24T12:22:51;24.50;45.30
68354;DHT22;55274;43.060;25.618;2023-04-24T12:25:19;24.80;44.10
68354;DHT22;55274;43.060;25.618;2023-04-24T12:27:51;25.00;43.80
68354;DHT22;55274;43.060;25.618;2023-04-24T12:30:18;24.80;44.60
68354;DHT22;55274;43.060;25.618;2023-04-24T12:32:46;24.70;45.40
68354;DHT22;55274;43.060;25.618;2023-04-24T12:35:13;24.50;45.20
68354;DHT22;55274;43.060;25.618;2023-04-24T12:37:42;24.40;45.80
68354;DHT22;55274;43.060;25.618;2023-04-24T12:40:10;24.50;45.40
68354;DHT22;55274;43.060;25.618;2023-04-24T12:42:42;24.40;45.50
68354;DHT22;55274;43.060;25.618;2023-04-24T12:45:08;24.50;46.10
68354;DHT22;55274;43.060;25.618;2023-04-24T12:47:35;24.60;43.80
68354;DHT22;55274;43.060;25.618;2023-04-24T12:50:02;24.60;43.10
68354;DHT22;55274;43.060;25.618;2023-04-24T12:52:29;24.60;43.20
68354;DHT22;55274;43.060;25.618;2023-04-24T12:54:57;24.50;42.10
68354;DHT22;55274;43.060;25.618;2023-04-24T12:57:24;24.70;42.00
68354;DHT22;55274;43.060;25.618;2023-04-24T12:59:50;24.90;41.60
68354;DHT22;55274;43.060;25.618;2023-04-24T13:02:16;24.90;41.70
68354;DHT22;55274;43.060;25.618;2023-04-24T13:04:46;24.60;40.30
68354;DHT22;55274;43.060;25.618;2023-04-24T13:07:13;24.50;41.60
68354;DHT22;55274;43.060;25.618;2023-04-24T13:09:40;24.30;41.80
68354;DHT22;55274;43.060;25.618;2023-04-24T13:12:06;24.20;40.70
68354;DHT22;55274;43.060;25.618;2023-04-24T13:14:32;24.20;42.60
68354;DHT22;55274;43.060;25.618;2023-04-24T13:16:58;24.30;40.70
68354;DHT22;55274;43.060;25.618;2023-04-24T13:19:27;24.50;40.80
68354;DHT22;55274;43.060;25.618;2023-04-24T13:21:55;24.40;40.50
68354;DHT22;55274;43.060;25.618;2023-04-24T13:24:22;24.00;44.20
68354;DHT22;55274;43.060;25.618;2023-04-24T13:26:53;23.80;45.60
68354;DHT22;55274;43.060;25.618;2023-04-24T13:29:18;23.50;46.80
68354;DHT22;55274;43.060;25.618;2023-04-24T13:31:45;23.20;48.50
68354;DHT22;55274;43.060;25.618;2023-04-24T13:34:12;23.40;49.50
68354;DHT22;55274;43.060;25.618;2023-04-24T13:36:38;23.00;49.80
68354;DHT22;55274;43.060;25.618;2023-04-24T13:39:05;22.70;50.20
68354;DHT22;55274;43.060;25.618;2023-04-24T13:41:33;22.60;50.70
68354;DHT22;55274;43.060;25.618;2023-04-24T13:43:59;22.40;51.10
68354;DHT22;55274;43.060;25.618;2023-04-24T13:46:24;22.30;51.40
68354;DHT22;55274;43.060;25.618;2023-04-24T13:48:50;22.20;51.50
68354;DHT22;55274;43.060;25.618;2023-04-24T13:51:16;22.00;51.60
68354;DHT22;55274;43.060;25.618;2023-04-24T13:53:42;22.10;51.80
68354;DHT22;55274;43.060;25.618;2023-04-24T13:56:08;22.20;51.80
68354;DHT22;55274;43.060;25.618;2023-04-24T13:58:35;22.40;51.50
68354;DHT22;55274;43.060;25.618;2023-04-24T14:01:04;22.40;50.60
68354;DHT22;55274;43.060;25.618;2023-04-24T14:03:30;22.60;51.20
68354;DHT22;55274;43.060;25.618;2023-04-24T14:05:56;22.50;49.80
68354;DHT22;55274;43.060;25.618;2023-04-24T14:08:22;22.50;49.90
68354;DHT22;55274;43.060;25.618;2023-04-24T14:10:47;22.30;50.30
68354;DHT22;55274;43.060;25.618;2023-04-24T14:13:13;22.30;50.60
68354;DHT22;55274;43.060;25.618;2023-04-24T14:15:39;22.50;50.20
68354;DHT22;55274;43.060;25.618;2023-04-24T14:18:05;22.60;49.90
68354;DHT22;55274;43.060;25.618;2023-04-24T14:20:31;22.60;49.90
68354;DHT22;55274;43.060;25.618;2023-04-24T14:22:57;22.60;50.60
68354;DHT22;55274;43.060;25.618;2023-04-24T14:25:26;22.60;50.00
68354;DHT22;55274;43.060;25.618;2023-04-24T14:27:52;22.60;50.10
68354;DHT22;55274;43.060;25.618;2023-04-24T14:30:18;22.50;51.00
68354;DHT22;55274;43.060;25.618;2023-04-24T14:32:44;22.50;50.60
68354;DHT22;55274;43.060;25.618;2023-04-24T14:35:10;22.40;50.40
68354;DHT22;55274;43.060;25.618;2023-04-24T14:37:36;22.40;50.60
68354;DHT22;55274;43.060;25.618;2023-04-24T14:40:03;22.50;51.50
68354;DHT22;55274;43.060;25.618;2023-04-24T14:42:30;22.40;51.50
68354;DHT22;55274;43.060;25.618;2023-04-24T14:44:56;22.30;51.90
68354;DHT22;55274;43.060;25.618;2023-04-24T14:47:22;22.30;52.60
68354;DHT22;55274;43.060;25.618;2023-04-24T14:49:51;22.20;52.40
68354;DHT22;55274;43.060;25.618;2023-04-24T14:52:17;22.20;53.10
68354;DHT22;55274;43.060;25.618;2023-04-24T14:54:43;22.20;52.80
68354;DHT22;55274;43.060;25.618;2023-04-24T14:57:09;22.10;52.70
68354;DHT22;55274;43.060;25.618;2023-04-24T14:59:35;22.00;53.30
68354;DHT22;55274;43.060;25.618;2023-04-24T15:02:01;21.80;53.50
68354;DHT22;55274;43.060;25.618;2023-04-24T15:04:27;21.70;54.00
68354;DHT22;55274;43.060;25.618;2023-04-24T15:06:54;21.60;54.10
68354;DHT22;55274;43.060;25.618;2023-04-24T15:09:24;21.50;54.80
68354;DHT22;55274;43.060;25.618;2023-04-24T15:11:51;21.20;55.40
68354;DHT22;55274;43.060;25.618;2023-04-24T15:14:18;21.00;55.70
68354;DHT22;55274;43.060;25.618;2023-04-24T15:16:44;20.90;56.80
68354;DHT22;55274;43.060;25.618;2023-04-24T15:19:10;20.80;56.20
68354;DHT22;55274;43.060;25.618;2023-04-24T15:21:37;20.80;56.70
68354;DHT22;55274;43.060;25.618;2023-04-24T15:24:04;20.60;56.80
68354;DHT22;55274;43.060;25.618;2023-04-24T15:26:30;20.60;57.30
68354;DHT22;55274;43.060;25.618;2023-04-24T15:28:56;20.60;57.20